sensor_id;sensor_type;location;lat;lon;timestamp;P1;durP1;ratioP1;P2;durP2;ratioP2
71360;SDS011;59166;48.908;1.870;2024-01-30T00:03:59;10.18;;;3.20;;
71360;SDS011;59166;48.908;1.870;2024-01-30T00:08:59;8.60;;;3.30;;
71360;SDS011;59166;48.908;1.870;2024-01-30T00:14:00;9.52;;;3.30;;
71360;SDS011;59166;48.908;1.870;2024-01-30T00:19:02;9.40;;;3.17;;
71360;SDS011;59166;48.908;1.870;2024-01-30T00:24:03;8.23;;;3.30;;
71360;SDS011;59166;48.908;1.870;2024-01-30T00:29:04;10.10;;;3.47;;
71360;SDS011;59166;48.908;1.870;2024-01-30T00:34:06;9.45;;;3.40;;
71360;SDS011;59166;48.908;1.870;2024-01-30T00:39:06;9.77;;;3.13;;
71360;SDS011;59166;48.908;1.870;2024-01-30T00:44:07;11.20;;;3.80;;
71360;SDS011;59166;48.908;1.870;2024-01-30T00:49:10;8.43;;;3.60;;
71360;SDS011;59166;48.908;1.870;2024-01-30T00:54:10;9.43;;;3.47;;
71360;SDS011;59166;48.908;1.870;2024-01-30T00:59:11;8.93;;;3.50;;
71360;SDS011;59166;48.908;1.870;2024-01-30T01:04:13;9.97;;;3.80;;
71360;SDS011;59166;48.908;1.870;2024-01-30T01:09:14;10.50;;;3.63;;
71360;SDS011;59166;48.908;1.870;2024-01-30T01:14:14;11.63;;;3.60;;
71360;SDS011;59166;48.908;1.870;2024-01-30T01:19:16;9.35;;;3.65;;
71360;SDS011;59166;48.908;1.870;2024-01-30T01:24:17;9.30;;;3.80;;
71360;SDS011;59166;48.908;1.870;2024-01-30T01:29:18;9.30;;;3.35;;
71360;SDS011;59166;48.908;1.870;2024-01-30T01:34:20;10.00;;;3.53;;
71360;SDS011;59166;48.908;1.870;2024-01-30T01:39:20;9.17;;;3.50;;
71360;SDS011;59166;48.908;1.870;2024-01-30T01:44:22;8.10;;;3.20;;
71360;SDS011;59166;48.908;1.870;2024-01-30T01:49:24;9.50;;;3.30;;
71360;SDS011;59166;48.908;1.870;2024-01-30T01:54:27;9.20;;;3.30;;
71360;SDS011;59166;48.908;1.870;2024-01-30T01:59:29;10.23;;;3.50;;
71360;SDS011;59166;48.908;1.870;2024-01-30T02:04:31;9.20;;;3.50;;
71360;SDS011;59166;48.908;1.870;2024-01-30T02:09:32;9.63;;;3.40;;
71360;SDS011;59166;48.908;1.870;2024-01-30T02:14:33;11.90;;;3.87;;
71360;SDS011;59166;48.908;1.870;2024-01-30T02:19:35;11.17;;;3.67;;
71360;SDS011;59166;48.908;1.870;2024-01-30T02:24:37;9.17;;;3.53;;
71360;SDS011;59166;48.908;1.870;2024-01-30T02:29:37;10.97;;;3.67;;
71360;SDS011;59166;48.908;1.870;2024-01-30T02:34:38;9.53;;;3.43;;
71360;SDS011;59166;48.908;1.870;2024-01-30T02:39:40;11.98;;;3.67;;
71360;SDS011;59166;48.908;1.870;2024-01-30T02:44:40;10.23;;;3.70;;
71360;SDS011;59166;48.908;1.870;2024-01-30T02:49:41;8.27;;;3.53;;
71360;SDS011;59166;48.908;1.870;2024-01-30T02:54:43;8.70;;;3.57;;
71360;SDS011;59166;48.908;1.870;2024-01-30T02:59:44;11.23;;;3.88;;
71360;SDS011;59166;48.908;1.870;2024-01-30T03:04:44;10.03;;;3.70;;
71360;SDS011;59166;48.908;1.870;2024-01-30T03:09:47;10.30;;;4.25;;
71360;SDS011;59166;48.908;1.870;2024-01-30T03:14:47;10.77;;;3.97;;
71360;SDS011;59166;48.908;1.870;2024-01-30T03:19:48;11.55;;;4.68;;
71360;SDS011;59166;48.908;1.870;2024-01-30T03:24:50;9.83;;;3.93;;
71360;SDS011;59166;48.908;1.870;2024-01-30T03:29:51;11.60;;;4.53;;
71360;SDS011;59166;48.908;1.870;2024-01-30T03:34:51;11.83;;;4.30;;
71360;SDS011;59166;48.908;1.870;2024-01-30T03:39:53;11.43;;;4.00;;
71360;SDS011;59166;48.908;1.870;2024-01-30T03:44:54;10.15;;;4.30;;
71360;SDS011;59166;48.908;1.870;2024-01-30T03:49:55;9.73;;;4.00;;
71360;SDS011;59166;48.908;1.870;2024-01-30T03:54:57;13.70;;;4.20;;
71360;SDS011;59166;48.908;1.870;2024-01-30T03:59:57;12.25;;;4.30;;
71360;SDS011;59166;48.908;1.870;2024-01-30T04:04:58;10.97;;;3.93;;
71360;SDS011;59166;48.908;1.870;2024-01-30T04:10:00;10.57;;;4.07;;
71360;SDS011;59166;48.908;1.870;2024-01-30T04:15:01;10.63;;;4.30;;
71360;SDS011;59166;48.908;1.870;2024-01-30T04:20:01;11.27;;;4.18;;
71360;SDS011;59166;48.908;1.870;2024-01-30T04:25:04;10.93;;;4.40;;
71360;SDS011;59166;48.908;1.870;2024-01-30T04:30:05;11.60;;;4.47;;
71360;SDS011;59166;48.908;1.870;2024-01-30T04:35:07;12.82;;;4.35;;
71360;SDS011;59166;48.908;1.870;2024-01-30T04:40:09;12.93;;;3.97;;
71360;SDS011;59166;48.908;1.870;2024-01-30T04:45:11;13.25;;;4.88;;
71360;SDS011;59166;48.908;1.870;2024-01-30T04:50:12;11.15;;;4.13;;
71360;SDS011;59166;48.908;1.870;2024-01-30T04:55:14;11.50;;;4.57;;
71360;SDS011;59166;48.908;1.870;2024-01-30T05:00:15;9.65;;;4.18;;
71360;SDS011;59166;48.908;1.870;2024-01-30T05:05:16;12.20;;;4.38;;
71360;SDS011;59166;48.908;1.870;2024-01-30T05:10:18;12.70;;;5.23;;
71360;SDS011;59166;48.908;1.870;2024-01-30T05:15:19;12.75;;;4.93;;
71360;SDS011;59166;48.908;1.870;2024-01-30T05:20:19;12.80;;;5.00;;
71360;SDS011;59166;48.908;1.870;2024-01-30T05:25:21;13.73;;;4.77;;
71360;SDS011;59166;48.908;1.870;2024-01-30T05:30:22;11.30;;;4.40;;
71360;SDS011;59166;48.908;1.870;2024-01-30T05:35:22;12.10;;;4.40;;
71360;SDS011;59166;48.908;1.870;2024-01-30T05:40:24;12.83;;;4.63;;
71360;SDS011;59166;48.908;1.870;2024-01-30T05:45:25;11.45;;;4.63;;
71360;SDS011;59166;48.908;1.870;2024-01-30T05:50:26;13.23;;;5.13;;
71360;SDS011;59166;48.908;1.870;2024-01-30T05:55:28;13.32;;;4.70;;
71360;SDS011;59166;48.908;1.870;2024-01-30T06:00:28;13.43;;;4.87;;
71360;SDS011;59166;48.908;1.870;2024-01-30T06:05:29;13.60;;;4.70;;
71360;SDS011;59166;48.908;1.870;2024-01-30T06:10:31;15.83;;;5.33;;
71360;SDS011;59166;48.908;1.870;2024-01-30T06:15:32;12.80;;;4.53;;
71360;SDS011;59166;48.908;1.870;2024-01-30T06:20:32;11.17;;;4.53;;
71360;SDS011;59166;48.908;1.870;2024-01-30T06:25:34;10.90;;;5.00;;
71360;SDS011;59166;48.908;1.870;2024-01-30T06:30:35;18.00;;;4.87;;
71360;SDS011;59166;48.908;1.870;2024-01-30T06:35:36;11.25;;;4.82;;
71360;SDS011;59166;48.908;1.870;2024-01-30T06:40:38;11.00;;;4.40;;
71360;SDS011;59166;48.908;1.870;2024-01-30T06:45:38;12.63;;;5.00;;
71360;SDS011;59166;48.908;1.870;2024-01-30T06:50:39;12.53;;;4.53;;
71360;SDS011;59166;48.908;1.870;2024-01-30T06:55:41;12.93;;;4.73;;
71360;SDS011;59166;48.908;1.870;2024-01-30T07:00:42;12.85;;;4.97;;
71360;SDS011;59166;48.908;1.870;2024-01-30T07:05:42;14.13;;;5.27;;
71360;SDS011;59166;48.908;1.870;2024-01-30T07:10:45;12.38;;;4.93;;
71360;SDS011;59166;48.908;1.870;2024-01-30T07:15:45;13.73;;;5.72;;
71360;SDS011;59166;48.908;1.870;2024-01-30T07:20:46;15.57;;;5.20;;
71360;SDS011;59166;48.908;1.870;2024-01-30T07:25:48;14.13;;;5.60;;
71360;SDS011;59166;48.908;1.870;2024-01-30T07:30:48;15.80;;;5.72;;
71360;SDS011;59166;48.908;1.870;2024-01-30T07:35:49;17.63;;;5.53;;
71360;SDS011;59166;48.908;1.870;2024-01-30T07:40:51;17.90;;;6.07;;
71360;SDS011;59166;48.908;1.870;2024-01-30T07:45:51;14.23;;;5.93;;
71360;SDS011;59166;48.908;1.870;2024-01-30T07:50:52;16.53;;;5.33;;
71360;SDS011;59166;48.908;1.870;2024-01-30T07:55:54;17.65;;;5.80;;
71360;SDS011;59166;48.908;1.870;2024-01-30T08:00:55;14.37;;;5.80;;
71360;SDS011;59166;48.908;1.870;2024-01-30T08:05:55;17.02;;;5.88;;
71360;SDS011;59166;48.908;1.870;2024-01-30T08:10:57;14.23;;;5.30;;
71360;SDS011;59166;48.908;1.870;2024-01-30T08:15:58;13.73;;;5.63;;
71360;SDS011;59166;48.908;1.870;2024-01-30T08:20:58;13.43;;;5.10;;
71360;SDS011;59166;48.908;1.870;2024-01-30T08:26:00;16.80;;;5.33;;
71360;SDS011;59166;48.908;1.870;2024-01-30T08:31:01;17.13;;;5.00;;
71360;SDS011;59166;48.908;1.870;2024-01-30T08:36:02;14.97;;;4.57;;
71360;SDS011;59166;48.908;1.870;2024-01-30T08:41:05;11.95;;;4.63;;
71360;SDS011;59166;48.908;1.870;2024-01-30T08:46:05;12.98;;;4.88;;
71360;SDS011;59166;48.908;1.870;2024-01-30T08:51:06;12.97;;;4.60;;
71360;SDS011;59166;48.908;1.870;2024-01-30T08:56:08;13.90;;;4.90;;
71360;SDS011;59166;48.908;1.870;2024-01-30T09:01:09;13.73;;;4.80;;
71360;SDS011;59166;48.908;1.870;2024-01-30T09:06:10;11.93;;;4.38;;
71360;SDS011;59166;48.908;1.870;2024-01-30T09:11:13;12.53;;;4.30;;
71360;SDS011;59166;48.908;1.870;2024-01-30T09:16:14;11.20;;;3.70;;
71360;SDS011;59166;48.908;1.870;2024-01-30T09:21:14;14.93;;;3.87;;
71360;SDS011;59166;48.908;1.870;2024-01-30T09:26:17;10.83;;;3.40;;
71360;SDS011;59166;48.908;1.870;2024-01-30T09:31:17;12.75;;;3.60;;
71360;SDS011;59166;48.908;1.870;2024-01-30T09:36:18;10.97;;;3.37;;
71360;SDS011;59166;48.908;1.870;2024-01-30T09:41:20;8.93;;;3.13;;
71360;SDS011;59166;48.908;1.870;2024-01-30T09:46:25;10.55;;;3.45;;
71360;SDS011;59166;48.908;1.870;2024-01-30T09:51:27;13.93;;;3.30;;
71360;SDS011;59166;48.908;1.870;2024-01-30T09:56:30;10.53;;;3.10;;
71360;SDS011;59166;48.908;1.870;2024-01-30T10:01:31;10.07;;;3.20;;
71360;SDS011;59166;48.908;1.870;2024-01-30T10:06:34;9.50;;;3.20;;
71360;SDS011;59166;48.908;1.870;2024-01-30T10:11:37;9.25;;;3.22;;
71360;SDS011;59166;48.908;1.870;2024-01-30T10:16:37;8.97;;;2.20;;
71360;SDS011;59166;48.908;1.870;2024-01-30T10:21:38;7.15;;;2.08;;
71360;SDS011;59166;48.908;1.870;2024-01-30T10:26:43;5.97;;;1.60;;
71360;SDS011;59166;48.908;1.870;2024-01-30T10:31:43;5.47;;;1.48;;
71360;SDS011;59166;48.908;1.870;2024-01-30T10:36:45;6.33;;;1.30;;
71360;SDS011;59166;48.908;1.870;2024-01-30T10:41:51;4.90;;;1.30;;
71360;SDS011;59166;48.908;1.870;2024-01-30T10:47:00;3.72;;;1.10;;
71360;SDS011;59166;48.908;1.870;2024-01-30T10:52:06;3.60;;;1.00;;
71360;SDS011;59166;48.908;1.870;2024-01-30T10:57:10;4.60;;;1.30;;
71360;SDS011;59166;48.908;1.870;2024-01-30T11:02:12;4.55;;;1.13;;
71360;SDS011;59166;48.908;1.870;2024-01-30T11:07:14;4.22;;;1.10;;
71360;SDS011;59166;48.908;1.870;2024-01-30T11:12:18;4.50;;;1.20;;
71360;SDS011;59166;48.908;1.870;2024-01-30T11:17:22;3.40;;;0.80;;
71360;SDS011;59166;48.908;1.870;2024-01-30T11:22:22;4.53;;;0.90;;
71360;SDS011;59166;48.908;1.870;2024-01-30T11:27:24;3.28;;;0.88;;
71360;SDS011;59166;48.908;1.870;2024-01-30T11:32:27;3.53;;;0.90;;
71360;SDS011;59166;48.908;1.870;2024-01-30T11:37:27;2.60;;;0.90;;
71360;SDS011;59166;48.908;1.870;2024-01-30T11:42:32;3.57;;;1.00;;
71360;SDS011;59166;48.908;1.870;2024-01-30T11:47:35;5.72;;;1.10;;
71360;SDS011;59166;48.908;1.870;2024-01-30T11:52:36;5.15;;;1.08;;
71360;SDS011;59166;48.908;1.870;2024-01-30T11:57:38;4.53;;;1.00;;
71360;SDS011;59166;48.908;1.870;2024-01-30T12:02:39;4.60;;;0.90;;
71360;SDS011;59166;48.908;1.870;2024-01-30T12:07:40;2.40;;;0.80;;
71360;SDS011;59166;48.908;1.870;2024-01-30T12:12:46;3.88;;;1.00;;
71360;SDS011;59166;48.908;1.870;2024-01-30T12:17:47;3.75;;;0.90;;
71360;SDS011;59166;48.908;1.870;2024-01-30T12:22:48;3.80;;;1.10;;
71360;SDS011;59166;48.908;1.870;2024-01-30T12:27:51;3.53;;;1.00;;
71360;SDS011;59166;48.908;1.870;2024-01-30T12:32:52;6.17;;;1.00;;
71360;SDS011;59166;48.908;1.870;2024-01-30T12:37:53;2.95;;;0.80;;
71360;SDS011;59166;48.908;1.870;2024-01-30T12:42:55;6.40;;;1.20;;
71360;SDS011;59166;48.908;1.870;2024-01-30T12:47:56;5.65;;;1.77;;
71360;SDS011;59166;48.908;1.870;2024-01-30T12:52:57;3.53;;;1.23;;
71360;SDS011;59166;48.908;1.870;2024-01-30T12:57:59;3.27;;;0.80;;
71360;SDS011;59166;48.908;1.870;2024-01-30T13:02:59;2.87;;;0.87;;
71360;SDS011;59166;48.908;1.870;2024-01-30T13:08:00;2.37;;;0.70;;
71360;SDS011;59166;48.908;1.870;2024-01-30T13:13:02;2.93;;;0.90;;
71360;SDS011;59166;48.908;1.870;2024-01-30T13:18:03;3.05;;;0.80;;
71360;SDS011;59166;48.908;1.870;2024-01-30T13:23:04;3.93;;;0.80;;
71360;SDS011;59166;48.908;1.870;2024-01-30T13:28:06;1.98;;;0.60;;
71360;SDS011;59166;48.908;1.870;2024-01-30T13:33:07;4.27;;;0.83;;
71360;SDS011;59166;48.908;1.870;2024-01-30T13:38:08;2.08;;;0.70;;
71360;SDS011;59166;48.908;1.870;2024-01-30T13:43:10;2.83;;;0.70;;
71360;SDS011;59166;48.908;1.870;2024-01-30T13:48:12;2.60;;;0.60;;
71360;SDS011;59166;48.908;1.870;2024-01-30T13:53:12;2.20;;;0.70;;
71360;SDS011;59166;48.908;1.870;2024-01-30T13:58:15;1.30;;;0.50;;
71360;SDS011;59166;48.908;1.870;2024-01-30T14:03:15;3.33;;;0.60;;
71360;SDS011;59166;48.908;1.870;2024-01-30T14:08:16;3.77;;;0.70;;
71360;SDS011;59166;48.908;1.870;2024-01-30T14:13:18;4.72;;;0.60;;
71360;SDS011;59166;48.908;1.870;2024-01-30T14:18:19;2.47;;;0.50;;
71360;SDS011;59166;48.908;1.870;2024-01-30T14:23:19;1.52;;;0.60;;
71360;SDS011;59166;48.908;1.870;2024-01-30T14:28:22;2.47;;;0.80;;
71360;SDS011;59166;48.908;1.870;2024-01-30T14:33:22;2.88;;;0.70;;
71360;SDS011;59166;48.908;1.870;2024-01-30T14:38:23;2.47;;;0.70;;
71360;SDS011;59166;48.908;1.870;2024-01-30T14:43:25;3.67;;;0.90;;
71360;SDS011;59166;48.908;1.870;2024-01-30T14:48:26;2.83;;;0.80;;
71360;SDS011;59166;48.908;1.870;2024-01-30T14:53:26;3.87;;;0.80;;
71360;SDS011;59166;48.908;1.870;2024-01-30T14:58:28;4.75;;;1.40;;
71360;SDS011;59166;48.908;1.870;2024-01-30T15:03:29;4.53;;;1.07;;
71360;SDS011;59166;48.908;1.870;2024-01-30T15:08:29;4.65;;;1.70;;
71360;SDS011;59166;48.908;1.870;2024-01-30T15:13:32;3.00;;;0.90;;
71360;SDS011;59166;48.908;1.870;2024-01-30T15:18:32;3.47;;;0.93;;
71360;SDS011;59166;48.908;1.870;2024-01-30T15:23:33;4.40;;;0.97;;
71360;SDS011;59166;48.908;1.870;2024-01-30T15:28:35;3.13;;;0.80;;
71360;SDS011;59166;48.908;1.870;2024-01-30T15:33:36;3.63;;;1.35;;
71360;SDS011;59166;48.908;1.870;2024-01-30T15:38:37;4.47;;;1.20;;
71360;SDS011;59166;48.908;1.870;2024-01-30T15:43:39;3.90;;;1.03;;
71360;SDS011;59166;48.908;1.870;2024-01-30T15:48:40;3.47;;;1.00;;
71360;SDS011;59166;48.908;1.870;2024-01-30T15:53:40;3.30;;;1.10;;
71360;SDS011;59166;48.908;1.870;2024-01-30T15:58:42;3.60;;;1.20;;
71360;SDS011;59166;48.908;1.870;2024-01-30T16:03:43;5.40;;;1.30;;
71360;SDS011;59166;48.908;1.870;2024-01-30T16:08:43;5.00;;;1.60;;
71360;SDS011;59166;48.908;1.870;2024-01-30T16:13:45;7.53;;;2.70;;
71360;SDS011;59166;48.908;1.870;2024-01-30T16:18:46;8.70;;;2.30;;
71360;SDS011;59166;48.908;1.870;2024-01-30T16:23:46;8.95;;;3.00;;
71360;SDS011;59166;48.908;1.870;2024-01-30T16:28:48;7.23;;;2.80;;
71360;SDS011;59166;48.908;1.870;2024-01-30T16:33:49;7.80;;;2.30;;
71360;SDS011;59166;48.908;1.870;2024-01-30T16:38:50;6.63;;;2.00;;
71360;SDS011;59166;48.908;1.870;2024-01-30T16:43:52;6.23;;;1.70;;
71360;SDS011;59166;48.908;1.870;2024-01-30T16:48:52;7.25;;;2.10;;
71360;SDS011;59166;48.908;1.870;2024-01-30T16:53:53;10.43;;;3.13;;
71360;SDS011;59166;48.908;1.870;2024-01-30T16:58:55;9.93;;;3.80;;
71360;SDS011;59166;48.908;1.870;2024-01-30T17:03:56;9.98;;;4.07;;
71360;SDS011;59166;48.908;1.870;2024-01-30T17:08:56;10.53;;;3.30;;
71360;SDS011;59166;48.908;1.870;2024-01-30T17:13:59;9.45;;;3.10;;
71360;SDS011;59166;48.908;1.870;2024-01-30T17:18:59;10.95;;;2.60;;
71360;SDS011;59166;48.908;1.870;2024-01-30T17:24:00;9.00;;;2.40;;
71360;SDS011;59166;48.908;1.870;2024-01-30T17:29:02;8.43;;;2.55;;
71360;SDS011;59166;48.908;1.870;2024-01-30T17:34:03;9.70;;;3.53;;
71360;SDS011;59166;48.908;1.870;2024-01-30T17:39:04;7.60;;;2.20;;
71360;SDS011;59166;48.908;1.870;2024-01-30T17:44:06;7.17;;;2.70;;
71360;SDS011;59166;48.908;1.870;2024-01-30T17:49:07;8.88;;;3.05;;
71360;SDS011;59166;48.908;1.870;2024-01-30T17:54:07;7.13;;;2.40;;
71360;SDS011;59166;48.908;1.870;2024-01-30T17:59:10;9.65;;;3.15;;
71360;SDS011;59166;48.908;1.870;2024-01-30T18:04:11;11.03;;;3.20;;
71360;SDS011;59166;48.908;1.870;2024-01-30T18:09:12;8.25;;;2.83;;
71360;SDS011;59166;48.908;1.870;2024-01-30T18:14:14;8.23;;;2.17;;
71360;SDS011;59166;48.908;1.870;2024-01-30T18:19:14;6.35;;;1.80;;
71360;SDS011;59166;48.908;1.870;2024-01-30T18:24:15;6.47;;;1.60;;
71360;SDS011;59166;48.908;1.870;2024-01-30T18:29:17;5.17;;;1.60;;
71360;SDS011;59166;48.908;1.870;2024-01-30T18:34:17;6.23;;;1.50;;
71360;SDS011;59166;48.908;1.870;2024-01-30T18:39:18;7.90;;;2.40;;
71360;SDS011;59166;48.908;1.870;2024-01-30T18:44:20;10.53;;;2.90;;
71360;SDS011;59166;48.908;1.870;2024-01-30T18:49:21;7.07;;;1.90;;
71360;SDS011;59166;48.908;1.870;2024-01-30T18:54:21;5.67;;;1.73;;
71360;SDS011;59166;48.908;1.870;2024-01-30T18:59:23;7.87;;;2.67;;
71360;SDS011;59166;48.908;1.870;2024-01-30T19:04:24;6.50;;;1.85;;
71360;SDS011;59166;48.908;1.870;2024-01-30T19:09:24;6.47;;;1.90;;
71360;SDS011;59166;48.908;1.870;2024-01-30T19:14:26;5.17;;;1.40;;
71360;SDS011;59166;48.908;1.870;2024-01-30T19:19:27;5.43;;;1.50;;
71360;SDS011;59166;48.908;1.870;2024-01-30T19:24:27;6.60;;;1.80;;
71360;SDS011;59166;48.908;1.870;2024-01-30T19:29:29;10.27;;;3.40;;
71360;SDS011;59166;48.908;1.870;2024-01-30T19:34:30;9.32;;;2.55;;
71360;SDS011;59166;48.908;1.870;2024-01-30T19:39:31;6.10;;;2.20;;
71360;SDS011;59166;48.908;1.870;2024-01-30T19:44:33;8.45;;;2.40;;
71360;SDS011;59166;48.908;1.870;2024-01-30T19:49:33;7.30;;;2.40;;
71360;SDS011;59166;48.908;1.870;2024-01-30T19:54:34;5.95;;;1.70;;
71360;SDS011;59166;48.908;1.870;2024-01-30T19:59:36;5.03;;;1.30;;
71360;SDS011;59166;48.908;1.870;2024-01-30T20:04:37;4.55;;;1.50;;
71360;SDS011;59166;48.908;1.870;2024-01-30T20:09:39;7.70;;;1.60;;
71360;SDS011;59166;48.908;1.870;2024-01-30T20:14:41;8.02;;;2.78;;
71360;SDS011;59166;48.908;1.870;2024-01-30T20:19:43;13.47;;;5.40;;
71360;SDS011;59166;48.908;1.870;2024-01-30T20:24:44;13.40;;;4.80;;
71360;SDS011;59166;48.908;1.870;2024-01-30T20:29:46;16.35;;;6.90;;
71360;SDS011;59166;48.908;1.870;2024-01-30T20:34:46;13.70;;;5.80;;
71360;SDS011;59166;48.908;1.870;2024-01-30T20:39:47;12.68;;;4.22;;
71360;SDS011;59166;48.908;1.870;2024-01-30T20:44:49;15.37;;;4.40;;
71360;SDS011;59166;48.908;1.870;2024-01-30T20:49:50;13.87;;;4.20;;
71360;SDS011;59166;48.908;1.870;2024-01-30T20:54:50;12.93;;;4.53;;
71360;SDS011;59166;48.908;1.870;2024-01-30T20:59:52;11.67;;;3.30;;
71360;SDS011;59166;48.908;1.870;2024-01-30T21:04:53;11.35;;;3.25;;
71360;SDS011;59166;48.908;1.870;2024-01-30T21:09:53;10.37;;;3.40;;
71360;SDS011;59166;48.908;1.870;2024-01-30T21:14:56;8.90;;;2.70;;
71360;SDS011;59166;48.908;1.870;2024-01-30T21:19:56;9.20;;;2.78;;
71360;SDS011;59166;48.908;1.870;2024-01-30T21:24:57;9.50;;;2.20;;
71360;SDS011;59166;48.908;1.870;2024-01-30T21:29:59;5.85;;;1.65;;
71360;SDS011;59166;48.908;1.870;2024-01-30T21:34:59;4.20;;;1.20;;
71360;SDS011;59166;48.908;1.870;2024-01-30T21:40:00;6.70;;;1.33;;
71360;SDS011;59166;48.908;1.870;2024-01-30T21:45:03;6.77;;;1.47;;
71360;SDS011;59166;48.908;1.870;2024-01-30T21:50:04;6.95;;;1.60;;
71360;SDS011;59166;48.908;1.870;2024-01-30T21:55:08;5.07;;;1.42;;
71360;SDS011;59166;48.908;1.870;2024-01-30T22:00:11;6.57;;;1.70;;
71360;SDS011;59166;48.908;1.870;2024-01-30T22:05:12;7.05;;;2.05;;
71360;SDS011;59166;48.908;1.870;2024-01-30T22:10:13;8.97;;;2.20;;
71360;SDS011;59166;48.908;1.870;2024-01-30T22:15:15;8.67;;;2.20;;
71360;SDS011;59166;48.908;1.870;2024-01-30T22:20:16;5.80;;;1.80;;
71360;SDS011;59166;48.908;1.870;2024-01-30T22:25:17;5.77;;;1.50;;
71360;SDS011;59166;48.908;1.870;2024-01-30T22:30:19;5.13;;;1.70;;
71360;SDS011;59166;48.908;1.870;2024-01-30T22:35:20;7.47;;;1.93;;
71360;SDS011;59166;48.908;1.870;2024-01-30T22:40:21;6.00;;;1.80;;
71360;SDS011;59166;48.908;1.870;2024-01-30T22:45:23;7.93;;;2.10;;
71360;SDS011;59166;48.908;1.870;2024-01-30T22:50:23;6.57;;;1.80;;
71360;SDS011;59166;48.908;1.870;2024-01-30T22:55:24;6.40;;;2.17;;
71360;SDS011;59166;48.908;1.870;2024-01-30T23:00:26;11.18;;;5.20;;
71360;SDS011;59166;48.908;1.870;2024-01-30T23:05:27;12.10;;;5.67;;
71360;SDS011;59166;48.908;1.870;2024-01-30T23:10:27;15.00;;;5.75;;
71360;SDS011;59166;48.908;1.870;2024-01-30T23:15:29;13.90;;;5.30;;
71360;SDS011;59166;48.908;1.870;2024-01-30T23:20:30;16.20;;;7.13;;
71360;SDS011;59166;48.908;1.870;2024-01-30T23:25:31;18.00;;;9.03;;
71360;SDS011;59166;48.908;1.870;2024-01-30T23:30:33;19.50;;;9.07;;
71360;SDS011;59166;48.908;1.870;2024-01-30T23:35:33;18.13;;;8.55;;
71360;SDS011;59166;48.908;1.870;2024-01-30T23:40:34;16.93;;;6.73;;
71360;SDS011;59166;48.908;1.870;2024-01-30T23:45:36;14.90;;;6.90;;
71360;SDS011;59166;48.908;1.870;2024-01-30T23:50:37;13.52;;;6.60;;
71360;SDS011;59166;48.908;1.870;2024-01-30T23:55:37;13.93;;;6.65;;
